Terminal Aerodrome Forecast
Issued by NWS Boise, ID

Home | Current Version | Previous Version | Text Only | Print | Product List | Glossary On
Versions: 1 2 3 4 5 6 7 8 9 10 11 12 13 14 15 16 17 18 19 20 21 22 23 24 25 26 27 28 29 30 31 32 33 34 35 36 37 38 39 40 41 42 43 44 45 46 47
000
FTUS45 KBOI 220014 AAA
TAFBNO
TAF AMD
KBNO 220014Z 2200/2224 17008KT P6SM -RA OVC015
     FM220900 19010KT 5SM -RA BR SCT015 OVC030
     FM221600 24014G24KT P6SM VCSH SCT020 OVC040
     FM222100 25015G25KT P6SM VCSH SCT050 BKN080=

USA.gov is the U.S. government's official web portal to all federal, state and local government web resources and services.